Time,TemperatureF,DewpointF,PressureIn,WindDirection,WindDirectionDegrees,WindSpeedMPH,WindSpeedGustMPH,Humidity,HourlyPrecipIn,Conditions,Clouds,dailyrainin,SoftwareType,DateUTC
2013-02-12 00:07:00,41.6,40.8,29.57,North,5,7.0,8.0,97,0.00,,,0.00,Wunderground v.1.15,2013-02-12 05:07:00,
2013-02-12 00:17:00,41.0,40.2,29.58,North,5,8.0,10.0,97,0.00,,,0.00,Wunderground v.1.15,2013-02-12 05:17:00,
2013-02-12 00:27:00,40.3,39.5,29.58,North,5,8.0,8.0,97,0.00,,,0.00,Wunderground v.1.15,2013-02-12 05:27:00,
2013-02-12 00:37:00,39.3,38.5,29.58,North,5,9.0,9.0,97,0.00,,,0.00,Wunderground v.1.15,2013-02-12 05:37:00,
2013-02-12 00:47:00,38.7,37.9,29.59,North,5,9.0,9.0,97,0.00,,,0.01,Wunderground v.1.15,2013-02-12 05:47:00,
2013-02-12 00:57:00,38.0,37.0,29.59,North,5,7.0,7.0,96,0.00,,,0.01,Wunderground v.1.15,2013-02-12 05:57:00,
2013-02-12 01:07:00,38.1,37.1,29.59,North,5,7.0,12.0,96,0.00,,,0.01,Wunderground v.1.15,2013-02-12 06:07:00,
2013-02-12 01:16:00,38.3,37.5,29.59,North,5,8.0,12.0,97,0.00,,,0.01,Wunderground v.1.15,2013-02-12 06:16:00,
2013-02-12 01:26:00,38.6,37.8,29.59,North,5,7.0,7.0,97,0.00,,,0.01,Wunderground v.1.15,2013-02-12 06:26:00,
2013-02-12 01:36:00,39.0,38.2,29.59,North,5,7.0,9.0,97,0.00,,,0.01,Wunderground v.1.15,2013-02-12 06:36:00,
2013-02-12 01:46:00,38.9,38.1,29.59,North,5,5.0,5.0,97,0.00,,,0.01,Wunderground v.1.15,2013-02-12 06:46:00,
2013-02-12 01:56:00,38.9,38.1,29.59,North,9,5.0,5.0,97,0.00,,,0.01,Wunderground v.1.15,2013-02-12 06:56:00,
2013-02-12 02:06:00,38.9,38.1,29.60,North,5,6.0,12.0,97,0.00,,,0.01,Wunderground v.1.15,2013-02-12 07:06:00,
2013-02-12 02:16:00,39.2,38.4,29.60,North,5,7.0,7.0,97,0.00,,,0.01,Wunderground v.1.15,2013-02-12 07:16:00,
2013-02-12 02:26:00,39.2,38.4,29.60,North,5,6.0,11.0,97,0.00,,,0.01,Wunderground v.1.15,2013-02-12 07:26:00,
2013-02-12 02:36:00,39.2,38.4,29.59,North,5,6.0,10.0,97,0.00,,,0.01,Wunderground v.1.15,2013-02-12 07:36:00,
2013-02-12 02:46:00,38.9,38.1,29.60,North,5,7.0,13.0,97,0.00,,,0.01,Wunderground v.1.15,2013-02-12 07:46:00,
2013-02-12 02:57:00,38.6,37.6,29.60,North,5,6.0,6.0,96,0.00,,,0.01,Wunderground v.1.15,2013-02-12 07:57:00,
2013-02-12 03:07:00,38.6,37.6,29.60,North,5,7.0,8.0,96,0.00,,,0.01,Wunderground v.1.15,2013-02-12 08:07:00,
2013-02-12 03:17:00,38.8,37.5,29.59,North,5,9.0,9.0,95,0.00,,,0.01,Wunderground v.1.15,2013-02-12 08:17:00,
2013-02-12 03:27:00,38.6,36.8,29.59,North,5,7.0,9.0,93,0.00,,,0.01,Wunderground v.1.15,2013-02-12 08:27:00,
2013-02-12 03:37:00,38.8,36.4,29.60,North,5,8.0,8.0,91,0.00,,,0.01,Wunderground v.1.15,2013-02-12 08:37:00,
2013-02-12 03:47:00,39.1,36.1,29.60,North,5,8.0,10.0,89,0.00,,,0.01,Wunderground v.1.15,2013-02-12 08:47:00,
2013-02-12 03:57:00,39.1,35.6,29.60,North,5,9.0,9.0,87,0.00,,,0.01,Wunderground v.1.15,2013-02-12 08:57:00,
2013-02-12 04:07:00,39.1,35.6,29.61,North,5,9.0,9.0,87,0.00,,,0.01,Wunderground v.1.15,2013-02-12 09:07:00,
2013-02-12 04:17:00,38.8,35.3,29.62,North,5,8.0,8.0,87,0.00,,,0.01,Wunderground v.1.15,2013-02-12 09:17:00,
2013-02-12 04:27:00,38.6,35.1,29.62,North,5,7.0,7.0,87,0.00,,,0.01,Wunderground v.1.15,2013-02-12 09:27:00,
2013-02-12 04:37:00,38.1,34.6,29.63,North,5,7.0,7.0,87,0.00,,,0.01,Wunderground v.1.15,2013-02-12 09:37:00,
2013-02-12 04:47:00,37.7,33.9,29.63,North,5,8.0,8.0,86,0.00,,,0.01,Wunderground v.1.15,2013-02-12 09:47:00,
2013-02-12 04:57:00,37.7,33.9,29.63,North,5,8.0,11.0,86,0.00,,,0.01,Wunderground v.1.15,2013-02-12 09:57:00,
2013-02-12 05:07:00,38.5,34.1,29.63,North,5,10.0,10.0,84,0.00,,,0.01,Wunderground v.1.15,2013-02-12 10:07:00,
2013-02-12 05:17:00,38.4,34.0,29.63,North,5,8.0,8.0,84,0.00,,,0.01,Wunderground v.1.15,2013-02-12 10:17:00,
2013-02-12 05:27:00,37.7,33.9,29.63,North,5,7.0,9.0,86,0.00,,,0.01,Wunderground v.1.15,2013-02-12 10:27:00,
2013-02-12 05:37:00,37.2,33.7,29.63,North,5,6.0,7.0,87,0.00,,,0.01,Wunderground v.1.15,2013-02-12 10:37:00,
2013-02-12 05:47:00,37.1,33.6,29.64,North,5,8.0,8.0,87,0.00,,,0.01,Wunderground v.1.15,2013-02-12 10:47:00,
2013-02-12 05:56:00,37.3,33.5,29.64,North,5,8.0,9.0,86,0.00,,,0.01,Wunderground v.1.15,2013-02-12 10:56:00,
2013-02-12 06:06:00,37.5,33.1,29.64,North,5,8.0,8.0,84,0.00,,,0.01,Wunderground v.1.15,2013-02-12 11:06:00,
2013-02-12 06:16:00,37.3,32.9,29.64,North,5,6.0,10.0,84,0.00,,,0.01,Wunderground v.1.15,2013-02-12 11:16:00,
2013-02-12 06:26:00,37.8,32.2,29.64,North,5,8.0,8.0,80,0.00,,,0.01,Wunderground v.1.15,2013-02-12 11:26:00,
2013-02-12 06:36:00,38.3,31.4,29.64,North,5,9.0,9.0,76,0.00,,,0.01,Wunderground v.1.15,2013-02-12 11:36:00,
2013-02-12 06:46:00,38.4,31.2,29.66,North,5,7.0,7.0,75,0.00,,,0.01,Wunderground v.1.15,2013-02-12 11:46:00,
2013-02-12 06:56:00,38.4,30.5,29.66,North,5,8.0,14.0,73,0.00,,,0.01,Wunderground v.1.15,2013-02-12 11:56:00,
2013-02-12 07:06:00,38.6,30.4,29.66,North,5,9.0,11.0,72,0.00,,,0.01,Wunderground v.1.15,2013-02-12 12:06:00,
2013-02-12 07:16:00,38.3,30.4,29.66,North,5,7.0,7.0,73,0.00,,,0.01,Wunderground v.1.15,2013-02-12 12:16:00,
2013-02-12 07:26:00,38.4,30.2,29.66,North,5,9.0,9.0,72,0.00,,,0.01,Wunderground v.1.15,2013-02-12 12:26:00,
2013-02-12 07:36:00,38.4,30.2,29.67,North,5,8.0,10.0,72,0.00,,,0.01,Wunderground v.1.15,2013-02-12 12:36:00,
2013-02-12 07:46:00,38.3,30.1,29.67,North,5,8.0,12.0,72,0.00,,,0.01,Wunderground v.1.15,2013-02-12 12:46:00,
2013-02-12 07:57:00,38.4,30.2,29.67,North,5,7.0,9.0,72,0.00,,,0.01,Wunderground v.1.15,2013-02-12 12:57:00,
2013-02-12 08:07:00,38.6,30.0,29.68,North,5,9.0,9.0,71,0.00,,,0.01,Wunderground v.1.15,2013-02-12 13:07:00,
2013-02-12 08:17:00,38.6,30.0,29.69,North,5,8.0,8.0,71,0.00,,,0.01,Wunderground v.1.15,2013-02-12 13:17:00,
2013-02-12 08:27:00,38.7,30.4,29.69,North,5,8.0,8.0,72,0.00,,,0.01,Wunderground v.1.15,2013-02-12 13:27:00,
2013-02-12 08:37:00,38.8,30.5,29.69,North,5,8.0,12.0,72,0.00,,,0.01,Wunderground v.1.15,2013-02-12 13:37:00,
2013-02-12 08:47:00,38.5,30.9,29.70,North,5,9.0,9.0,74,0.00,,,0.01,Wunderground v.1.15,2013-02-12 13:47:00,
2013-02-12 08:57:00,38.6,30.7,29.70,North,5,9.0,9.0,73,0.00,,,0.01,Wunderground v.1.15,2013-02-12 13:57:00,
2013-02-12 09:07:00,39.3,30.3,29.70,North,5,10.0,11.0,70,0.00,,,0.01,Wunderground v.1.15,2013-02-12 14:07:00,
2013-02-12 09:17:00,39.9,29.8,29.71,North,5,9.0,17.0,67,0.00,,,0.01,Wunderground v.1.15,2013-02-12 14:17:00,
2013-02-12 09:27:00,40.1,30.0,29.71,North,5,8.0,8.0,67,0.00,,,0.01,Wunderground v.1.15,2013-02-12 14:27:00,
2013-02-12 09:37:00,40.2,29.7,29.72,North,5,9.0,13.0,66,0.00,,,0.01,Wunderground v.1.15,2013-02-12 14:37:00,
2013-02-12 09:47:00,40.1,29.6,29.72,North,5,9.0,9.0,66,0.00,,,0.01,Wunderground v.1.15,2013-02-12 14:47:00,
2013-02-12 09:57:00,40.1,29.6,29.72,North,5,8.0,10.0,66,0.00,,,0.01,Wunderground v.1.15,2013-02-12 14:57:00,
2013-02-12 10:07:00,40.3,29.8,29.72,North,5,8.0,8.0,66,0.00,,,0.01,Wunderground v.1.15,2013-02-12 15:07:00,
2013-02-12 10:17:00,40.6,29.4,29.72,North,5,9.0,12.0,64,0.00,,,0.01,Wunderground v.1.15,2013-02-12 15:17:00,
2013-02-12 10:27:00,40.6,29.4,29.72,North,5,9.0,9.0,64,0.00,,,0.01,Wunderground v.1.15,2013-02-12 15:27:00,
2013-02-12 10:37:00,40.5,28.9,29.72,North,5,11.0,11.0,63,0.00,,,0.01,Wunderground v.1.15,2013-02-12 15:37:00,
2013-02-12 10:46:00,40.5,29.3,29.72,North,5,9.0,9.0,64,0.00,,,0.01,Wunderground v.1.15,2013-02-12 15:46:00,
2013-02-12 10:56:00,40.5,28.9,29.72,North,5,10.0,10.0,63,0.00,,,0.01,Wunderground v.1.15,2013-02-12 15:56:00,
2013-02-12 11:07:00,40.6,29.4,29.72,North,5,9.0,10.0,64,0.00,,,0.01,Wunderground v.1.15,2013-02-12 16:07:00,
2013-02-12 11:17:00,40.6,29.4,29.73,North,5,8.0,8.0,64,0.00,,,0.01,Wunderground v.1.15,2013-02-12 16:17:00,
2013-02-12 11:27:00,40.4,29.6,29.73,North,5,9.0,9.0,65,0.00,,,0.01,Wunderground v.1.15,2013-02-12 16:27:00,
2013-02-12 11:37:00,40.4,29.6,29.72,North,5,9.0,9.0,65,0.00,,,0.01,Wunderground v.1.15,2013-02-12 16:37:00,
2013-02-12 11:47:00,40.4,29.6,29.72,North,5,10.0,14.0,65,0.00,,,0.01,Wunderground v.1.15,2013-02-12 16:47:00,
2013-02-12 11:56:00,40.4,29.6,29.72,North,5,10.0,10.0,65,0.00,,,0.01,Wunderground v.1.15,2013-02-12 16:56:00,
2013-02-12 12:06:00,40.4,29.9,29.72,North,5,10.0,10.0,66,0.00,,,0.01,Wunderground v.1.15,2013-02-12 17:06:00,
2013-02-12 12:16:00,40.4,29.9,29.72,North,5,11.0,11.0,66,0.00,,,0.01,Wunderground v.1.15,2013-02-12 17:16:00,
2013-02-12 12:26:00,40.3,29.8,29.72,North,5,9.0,13.0,66,0.00,,,0.01,Wunderground v.1.15,2013-02-12 17:26:00,
2013-02-12 12:36:00,40.1,30.0,29.72,North,5,10.0,10.0,67,0.00,,,0.01,Wunderground v.1.15,2013-02-12 17:36:00,
2013-02-12 12:46:00,40.1,30.0,29.73,North,5,10.0,10.0,67,0.00,,,0.01,Wunderground v.1.15,2013-02-12 17:46:00,
2013-02-12 12:57:00,40.1,29.6,29.73,North,5,10.0,10.0,66,0.00,,,0.01,Wunderground v.1.15,2013-02-12 17:57:00,
2013-02-12 13:07:00,40.2,30.1,29.73,North,5,10.0,12.0,67,0.00,,,0.01,Wunderground v.1.15,2013-02-12 18:07:00,
2013-02-12 13:17:00,40.2,29.7,29.73,North,5,10.0,10.0,66,0.00,,,0.01,Wunderground v.1.15,2013-02-12 18:17:00,
2013-02-12 13:27:00,40.0,30.3,29.73,North,5,9.0,11.0,68,0.00,,,0.01,Wunderground v.1.15,2013-02-12 18:27:00,
2013-02-12 13:37:00,40.0,30.3,29.73,North,5,10.0,12.0,68,0.00,,,0.01,Wunderground v.1.15,2013-02-12 18:37:00,
2013-02-12 13:47:00,40.1,30.0,29.74,North,5,10.0,10.0,67,0.00,,,0.01,Wunderground v.1.15,2013-02-12 18:47:00,
2013-02-12 13:57:00,40.2,30.1,29.74,North,5,9.0,9.0,67,0.00,,,0.01,Wunderground v.1.15,2013-02-12 18:57:00,
2013-02-12 14:07:00,40.2,30.1,29.74,North,5,10.0,10.0,67,0.00,,,0.01,Wunderground v.1.15,2013-02-12 19:07:00,
2013-02-12 14:17:00,40.1,30.0,29.74,North,5,10.0,10.0,67,0.00,,,0.01,Wunderground v.1.15,2013-02-12 19:17:00,
2013-02-12 14:27:00,39.7,30.7,29.74,North,5,9.0,9.0,70,0.00,,,0.01,Wunderground v.1.15,2013-02-12 19:27:00,
2013-02-12 14:37:00,39.8,30.8,29.74,North,5,8.0,8.0,70,0.00,,,0.01,Wunderground v.1.15,2013-02-12 19:37:00,
2013-02-12 14:47:00,39.6,30.6,29.73,North,5,8.0,8.0,70,0.00,,,0.01,Wunderground v.1.15,2013-02-12 19:47:00,
2013-02-12 14:57:00,39.1,30.8,29.73,North,5,7.0,7.0,72,0.00,,,0.01,Wunderground v.1.15,2013-02-12 19:57:00,
2013-02-12 15:07:00,39.3,30.7,29.74,North,5,8.0,8.0,71,0.00,,,0.01,Wunderground v.1.15,2013-02-12 20:07:00,
2013-02-12 15:17:00,39.2,30.9,29.75,North,5,9.0,10.0,72,0.00,,,0.01,Wunderground v.1.15,2013-02-12 20:17:00,
2013-02-12 15:27:00,38.9,31.0,29.75,North,5,8.0,8.0,73,0.00,,,0.01,Wunderground v.1.15,2013-02-12 20:27:00,
2013-02-12 15:37:00,38.7,30.8,29.74,North,5,7.0,7.0,73,0.00,,,0.01,Wunderground v.1.15,2013-02-12 20:37:00,
2013-02-12 15:47:00,38.6,30.7,29.74,North,5,6.0,6.0,73,0.00,,,0.01,Wunderground v.1.15,2013-02-12 20:47:00,
2013-02-12 15:57:00,38.6,31.0,29.74,North,5,6.0,8.0,74,0.00,,,0.01,Wunderground v.1.15,2013-02-12 20:57:00,
2013-02-12 16:07:00,38.6,31.0,29.73,North,5,6.0,6.0,74,0.00,,,0.01,Wunderground v.1.15,2013-02-12 21:07:00,
2013-02-12 16:17:00,38.7,31.1,29.73,North,5,6.0,9.0,74,0.00,,,0.01,Wunderground v.1.15,2013-02-12 21:17:00,
2013-02-12 16:26:00,38.2,30.6,29.73,North,5,6.0,6.0,74,0.00,,,0.01,Wunderground v.1.15,2013-02-12 21:26:00,
2013-02-12 16:36:00,38.0,30.8,29.73,North,5,6.0,6.0,75,0.00,,,0.01,Wunderground v.1.15,2013-02-12 21:36:00,
2013-02-12 16:46:00,37.8,30.6,29.72,North,5,7.0,7.0,75,0.00,,,0.01,Wunderground v.1.15,2013-02-12 21:46:00,
2013-02-12 16:56:00,37.2,31.0,29.72,North,5,5.0,5.0,78,0.00,,,0.01,Wunderground v.1.15,2013-02-12 21:56:00,
2013-02-12 17:06:00,36.8,30.9,29.70,North,5,4.0,6.0,79,0.00,,,0.01,Wunderground v.1.15,2013-02-12 22:06:00,
2013-02-12 17:16:00,36.8,30.6,29.71,North,5,5.0,5.0,78,0.00,,,0.01,Wunderground v.1.15,2013-02-12 22:16:00,
2013-02-12 17:26:00,36.7,31.1,29.71,North,5,5.0,5.0,80,0.00,,,0.01,Wunderground v.1.15,2013-02-12 22:26:00,
2013-02-12 17:36:00,36.5,30.6,29.74,North,5,5.0,5.0,79,0.00,,,0.01,Wunderground v.1.15,2013-02-12 22:36:00,
2013-02-12 17:47:00,36.8,30.3,29.75,North,5,7.0,7.0,77,0.00,,,0.01,Wunderground v.1.15,2013-02-12 22:47:00,
2013-02-12 17:57:00,37.0,30.1,29.75,North,5,6.0,6.0,76,0.00,,,0.01,Wunderground v.1.15,2013-02-12 22:57:00,
2013-02-12 18:07:00,37.0,30.1,29.76,North,5,6.0,6.0,76,0.00,,,0.01,Wunderground v.1.15,2013-02-12 23:07:00,
2013-02-12 18:17:00,37.3,29.4,29.80,North,5,8.0,8.0,73,0.00,,,0.01,Wunderground v.1.15,2013-02-12 23:17:00,
2013-02-12 18:27:00,37.4,28.2,29.80,North,5,7.0,7.0,69,0.00,,,0.01,Wunderground v.1.15,2013-02-12 23:27:00,
2013-02-12 18:37:00,38.0,27.6,29.83,North,5,9.0,11.0,66,0.00,,,0.01,Wunderground v.1.15,2013-02-12 23:37:00,
2013-02-12 18:47:00,38.4,27.7,29.83,North,5,8.0,8.0,65,0.00,,,0.01,Wunderground v.1.15,2013-02-12 23:47:00,
2013-02-12 18:57:00,38.2,27.8,29.83,North,5,6.0,6.0,66,0.00,,,0.01,Wunderground v.1.15,2013-02-12 23:57:00,
2013-02-12 19:07:00,38.1,28.8,29.84,North,5,8.0,8.0,69,0.00,,,0.01,Wunderground v.1.15,2013-02-13 00:07:00,
2013-02-12 19:17:00,37.5,30.0,29.84,North,5,7.0,9.0,74,0.00,,,0.01,Wunderground v.1.15,2013-02-13 00:17:00,
2013-02-12 19:27:00,37.0,29.8,29.84,North,5,8.0,8.0,75,0.00,,,0.01,Wunderground v.1.15,2013-02-13 00:27:00,
2013-02-12 19:37:00,36.9,29.7,29.81,North,5,8.0,8.0,75,0.00,,,0.01,Wunderground v.1.15,2013-02-13 00:37:00,
2013-02-12 19:47:00,36.8,29.6,29.83,North,5,8.0,10.0,75,0.00,,,0.01,Wunderground v.1.15,2013-02-13 00:47:00,
2013-02-12 19:57:00,36.8,29.3,29.83,North,5,8.0,8.0,74,0.00,,,0.01,Wunderground v.1.15,2013-02-13 00:57:00,
2013-02-12 20:07:00,36.8,29.6,29.82,North,5,7.0,7.0,75,0.00,,,0.01,Wunderground v.1.15,2013-02-13 01:07:00,
2013-02-12 20:17:00,36.6,29.4,29.83,North,5,7.0,10.0,75,0.00,,,0.01,Wunderground v.1.15,2013-02-13 01:17:00,
2013-02-12 20:27:00,36.5,29.3,29.83,North,5,6.0,6.0,75,0.00,,,0.01,Wunderground v.1.15,2013-02-13 01:27:00,
2013-02-12 20:37:00,36.5,29.0,29.83,North,5,6.0,6.0,74,0.00,,,0.01,Wunderground v.1.15,2013-02-13 01:37:00,
2013-02-12 20:46:00,36.4,29.2,29.83,North,5,6.0,9.0,75,0.00,,,0.01,Wunderground v.1.15,2013-02-13 01:46:00,
2013-02-12 20:56:00,36.2,29.4,29.83,North,5,7.0,7.0,76,0.00,,,0.01,Wunderground v.1.15,2013-02-13 01:56:00,
2013-02-12 21:06:00,36.0,29.5,29.81,North,5,6.0,7.0,77,0.00,,,0.01,Wunderground v.1.15,2013-02-13 02:06:00,
2013-02-12 21:16:00,35.9,29.7,29.80,North,5,7.0,10.0,78,0.00,,,0.01,Wunderground v.1.15,2013-02-13 02:16:00,
2013-02-12 21:26:00,35.9,29.4,29.80,North,5,6.0,6.0,77,0.00,,,0.01,Wunderground v.1.15,2013-02-13 02:26:00,
2013-02-12 21:36:00,35.7,29.2,29.80,North,5,5.0,5.0,77,0.00,,,0.01,Wunderground v.1.15,2013-02-13 02:36:00,
2013-02-12 21:46:00,35.7,29.5,29.79,North,5,6.0,6.0,78,0.00,,,0.01,Wunderground v.1.15,2013-02-13 02:46:00,
2013-02-12 21:56:00,35.6,29.1,29.79,North,5,6.0,10.0,77,0.00,,,0.01,Wunderground v.1.15,2013-02-13 02:56:00,
2013-02-12 22:06:00,35.6,29.4,29.78,North,5,6.0,6.0,78,0.00,,,0.01,Wunderground v.1.15,2013-02-13 03:06:00,
2013-02-12 22:16:00,35.3,29.4,29.77,North,5,5.0,5.0,79,0.00,,,0.01,Wunderground v.1.15,2013-02-13 03:16:00,
2013-02-12 22:26:00,35.2,29.3,29.77,North,5,5.0,8.0,79,0.00,,,0.01,Wunderground v.1.15,2013-02-13 03:26:00,
2013-02-12 22:36:00,35.2,29.6,29.78,North,5,6.0,6.0,80,0.00,,,0.01,Wunderground v.1.15,2013-02-13 03:36:00,
2013-02-12 22:47:00,35.1,29.2,29.77,North,5,5.0,5.0,79,0.00,,,0.01,Wunderground v.1.15,2013-02-13 03:47:00,
2013-02-12 22:57:00,35.3,29.1,29.77,North,5,5.0,9.0,78,0.00,,,0.01,Wunderground v.1.15,2013-02-13 03:57:00,
2013-02-12 23:07:00,35.4,28.9,29.78,North,5,6.0,7.0,77,0.00,,,0.01,Wunderground v.1.15,2013-02-13 04:07:00,
2013-02-12 23:17:00,35.7,28.9,29.78,North,5,7.0,7.0,76,0.00,,,0.01,Wunderground v.1.15,2013-02-13 04:17:00,
2013-02-12 23:27:00,35.6,28.8,29.78,North,5,6.0,9.0,76,0.00,,,0.01,Wunderground v.1.15,2013-02-13 04:27:00,
2013-02-12 23:37:00,35.6,28.5,29.80,North,5,6.0,7.0,75,0.00,,,0.01,Wunderground v.1.15,2013-02-13 04:37:00,
2013-02-12 23:47:00,35.6,29.1,29.80,North,5,5.0,5.0,77,0.00,,,0.01,Wunderground v.1.15,2013-02-13 04:47:00,
2013-02-12 23:57:00,35.5,28.7,29.80,North,5,5.0,9.0,76,0.00,,,0.01,Wunderground v.1.15,2013-02-13 04:57:00,